Time;durP1;ratioP1;P1;durP2;ratioP2;P2;SDS_P1;SDS_P2;PMS_P1;PMS_P2;Temp;Humidity;BMP_temperature;BMP_pressure;BME280_temperature;BME280_humidity;BME280_pressure;Samples;Min_cycle;Max_cycle;Signal;HPM_P1;HPM_P2
2023/02/20 00:01:23;;;;;;;0.20;0.10;;;;;;;;;;4148422;28;20070;-44
2023/02/20 00:03:25;;;;;;;0.20;0.10;;;;;;;;;;4148592;28;20108;-42
2023/02/20 00:05:26;;;;;;;1.38;0.10;;;;;;;;;;4147187;28;20058;-48
2023/02/20 00:07:28;;;;;;;0.10;0.10;;;;;;;;;;4147841;28;20054;-47
2023/02/20 00:09:30;;;;;;;0.20;0.13;;;;;;;;;;4131022;28;20050;-43
2023/02/20 00:11:31;;;;;;;0.32;0.10;;;;;;;;;;4130952;28;20124;-43
2023/02/20 00:13:32;;;;;;;0.30;0.20;;;;;;;;;;4148318;28;20053;-45
2023/02/20 00:15:34;;;;;;;0.63;0.17;;;;;;;;;;4147856;28;20057;-49
2023/02/20 00:17:35;;;;;;;0.65;0.10;;;;;;;;;;4148213;28;20049;-44
2023/02/20 00:19:36;;;;;;;0.10;0.10;;;;;;;;;;4148221;28;20394;-45
2023/02/20 00:21:44;;;;;;;0.15;0.08;;;;;;;;;;4147878;28;20058;-43
2023/02/20 00:23:45;;;;;;;0.13;0.10;;;;;;;;;;4147722;28;20085;-42
2023/02/20 00:25:46;;;;;;;0.00;0.00;;;;;;;;;;4148298;28;20387;-47
2023/02/20 00:27:48;;;;;;;0.45;0.20;;;;;;;;;;4147962;28;20120;-43
2023/02/20 00:29:49;;;;;;;0.52;0.10;;;;;;;;;;4114897;28;20411;-45
2023/02/20 00:31:55;;;;;;;0.40;0.22;;;;;;;;;;4147398;28;20489;-43
2023/02/20 00:33:56;;;;;;;0.10;0.10;;;;;;;;;;4147965;28;20092;-48
2023/02/20 00:35:58;;;;;;;0.30;0.20;;;;;;;;;;4147900;28;20152;-47
2023/02/20 00:37:59;;;;;;;0.73;0.20;;;;;;;;;;4147431;28;20076;-43
2023/02/20 00:40:01;;;;;;;0.10;0.10;;;;;;;;;;4130606;28;20411;-44
2023/02/20 00:42:03;;;;;;;0.20;0.10;;;;;;;;;;4130745;28;20077;-43
2023/02/20 00:44:04;;;;;;;0.38;0.25;;;;;;;;;;4148426;28;20058;-48
2023/02/20 00:46:06;;;;;;;0.10;0.10;;;;;;;;;;4147750;28;20310;-44
2023/02/20 00:48:07;;;;;;;0.13;0.13;;;;;;;;;;4130448;28;20054;-44
2023/02/20 00:50:09;;;;;;;0.10;0.00;;;;;;;;;;4147411;28;20061;-44
2023/02/20 00:52:10;;;;;;;0.20;0.10;;;;;;;;;;4129763;28;20050;-50
2023/02/20 00:54:11;;;;;;;0.40;0.10;;;;;;;;;;4148262;28;20383;-44
2023/02/20 00:56:13;;;;;;;0.15;0.10;;;;;;;;;;4129533;28;20062;-45
2023/02/20 00:58:14;;;;;;;0.50;0.25;;;;;;;;;;4129885;28;20054;-43
2023/02/20 01:00:25;;;;;;;0.10;0.10;;;;;;;;;;4147578;28;20061;-43
2023/02/20 01:02:26;;;;;;;0.20;0.10;;;;;;;;;;4129444;28;20473;-49
2023/02/20 01:04:28;;;;;;;0.43;0.20;;;;;;;;;;4146946;28;20081;-41
2023/02/20 01:06:29;;;;;;;0.57;0.10;;;;;;;;;;4147116;28;20057;-44
2023/02/20 01:08:31;;;;;;;0.40;0.13;;;;;;;;;;4147509;28;20076;-43
2023/02/20 01:10:32;;;;;;;0.50;0.20;;;;;;;;;;4147732;28;20064;-43
2023/02/20 01:12:33;;;;;;;0.10;0.10;;;;;;;;;;4147171;28;20346;-46
2023/02/20 01:14:35;;;;;;;0.40;0.15;;;;;;;;;;4129499;28;20066;-44
2023/02/20 01:16:43;;;;;;;1.15;0.28;;;;;;;;;;4146844;28;20054;-44
2023/02/20 01:18:48;;;;;;;0.17;0.17;;;;;;;;;;4113791;28;20122;-45
2023/02/20 01:20:49;;;;;;;0.10;0.10;;;;;;;;;;4147235;28;20054;-42
2023/02/20 01:22:51;;;;;;;0.65;0.10;;;;;;;;;;4146625;28;20498;-45
2023/02/20 01:24:52;;;;;;;0.20;0.20;;;;;;;;;;4146185;28;20513;-45
2023/02/20 01:26:53;;;;;;;0.10;0.10;;;;;;;;;;4147081;28;20054;-44
2023/02/20 01:28:55;;;;;;;0.10;0.10;;;;;;;;;;4129665;28;20054;-45
2023/02/20 01:30:57;;;;;;;1.08;0.20;;;;;;;;;;4146845;28;20057;-44
2023/02/20 01:32:58;;;;;;;0.32;0.10;;;;;;;;;;4129380;28;20097;-44
2023/02/20 01:34:59;;;;;;;0.70;0.20;;;;;;;;;;4147136;28;20057;-44
2023/02/20 01:37:01;;;;;;;0.75;0.38;;;;;;;;;;4146446;28;20187;-44
2023/02/20 01:39:02;;;;;;;0.57;0.15;;;;;;;;;;4147168;28;20058;-44
2023/02/20 01:41:04;;;;;;;0.45;0.28;;;;;;;;;;4146876;28;20471;-47
2023/02/20 01:43:06;;;;;;;0.45;0.10;;;;;;;;;;4146907;28;20070;-42
2023/02/20 01:45:33;;;;;;;0.73;0.20;;;;;;;;;;4146874;28;20104;-41
2023/02/20 01:47:34;;;;;;;0.45;0.10;;;;;;;;;;4137265;28;20049;-41
2023/02/20 01:49:42;;;;;;;0.20;0.10;;;;;;;;;;4129878;28;20058;-44
2023/02/20 01:51:47;;;;;;;0.20;0.10;;;;;;;;;;4146312;28;20498;-45
2023/02/20 01:53:50;;;;;;;0.55;0.10;;;;;;;;;;4146853;28;20049;-44
2023/02/20 01:56:03;;;;;;;0.10;0.10;;;;;;;;;;4146581;28;20054;-42
2023/02/20 01:58:43;;;;;;;0.43;0.20;;;;;;;;;;4146558;28;20556;-43
2023/02/20 02:00:44;;;;;;;0.00;0.00;;;;;;;;;;4064693;29;20056;-43
2023/02/20 02:02:54;;;;;;;0.20;0.10;;;;;;;;;;4102384;28;20406;-44
2023/02/20 02:04:55;;;;;;;0.22;0.10;;;;;;;;;;4129180;28;20050;-45
2023/02/20 02:06:58;;;;;;;0.10;0.10;;;;;;;;;;4146162;28;20053;-44
2023/02/20 02:09:07;;;;;;;1.50;0.13;;;;;;;;;;4146283;28;20060;-44
2023/02/20 02:11:11;;;;;;;0.85;0.10;;;;;;;;;;4129276;28;20114;-42
2023/02/20 02:13:12;;;;;;;1.45;0.00;;;;;;;;;;4129332;28;20066;-43
2023/02/20 02:15:17;;;;;;;0.60;0.17;;;;;;;;;;4129278;28;20526;-48
2023/02/20 02:17:36;;;;;;;0.10;0.10;;;;;;;;;;4146669;28;20050;-44
2023/02/20 02:20:15;;;;;;;0.38;0.10;;;;;;;;;;4146760;28;20061;-43
2023/02/20 02:22:29;;;;;;;0.25;0.13;;;;;;;;;;4113024;28;20051;-45
2023/02/20 02:24:45;;;;;;;0.38;0.10;;;;;;;;;;4138856;28;20116;-45
2023/02/20 02:27:08;;;;;;;1.27;0.20;;;;;;;;;;4128874;28;20061;-44
2023/02/20 02:29:34;;;;;;;0.20;0.20;;;;;;;;;;4149168;28;20096;-44
2023/02/20 02:31:46;;;;;;;1.08;0.22;;;;;;;;;;4149951;28;20061;-44
2023/02/20 02:34:25;;;;;;;0.73;0.20;;;;;;;;;;4100491;28;20092;-44
2023/02/20 02:36:37;;;;;;;0.80;0.15;;;;;;;;;;4144965;28;20125;-43
2023/02/20 02:38:54;;;;;;;0.13;0.10;;;;;;;;;;4132417;28;20065;-46
2023/02/20 02:41:16;;;;;;;0.70;0.25;;;;;;;;;;4132591;28;20109;-46
2023/02/20 02:43:30;;;;;;;0.73;0.20;;;;;;;;;;4132157;28;20100;-47
2023/02/20 02:45:36;;;;;;;0.15;0.10;;;;;;;;;;4149550;28;20057;-46
2023/02/20 02:47:55;;;;;;;0.28;0.10;;;;;;;;;;4149431;28;20132;-44
2023/02/20 02:50:02;;;;;;;0.30;0.10;;;;;;;;;;4149431;28;20057;-46
2023/02/20 02:52:04;;;;;;;0.43;0.10;;;;;;;;;;4131959;28;20145;-44
2023/02/20 02:54:09;;;;;;;0.13;0.10;;;;;;;;;;4148349;28;20049;-46
2023/02/20 02:56:22;;;;;;;2.13;0.10;;;;;;;;;;4149437;28;20410;-45
2023/02/20 02:58:24;;;;;;;0.85;0.20;;;;;;;;;;4131837;28;20061;-43
2023/02/20 03:00:28;;;;;;;0.40;0.10;;;;;;;;;;4149775;28;20098;-44
2023/02/20 03:02:59;;;;;;;0.20;0.10;;;;;;;;;;4132052;28;20498;-44
2023/02/20 03:05:03;;;;;;;0.20;0.10;;;;;;;;;;4141582;28;20493;-42
2023/02/20 03:07:10;;;;;;;0.77;0.10;;;;;;;;;;4148695;28;20413;-45
2023/02/20 03:09:38;;;;;;;0.30;0.10;;;;;;;;;;4149325;28;20057;-45
2023/02/20 03:11:43;;;;;;;0.00;0.00;;;;;;;;;;4106794;28;20585;-50
2023/02/20 03:16:10;;;;;;;0.30;0.10;;;;;;;;;;4148913;28;20058;-45
2023/02/20 03:18:30;;;;;;;0.43;0.10;;;;;;;;;;4131971;28;20050;-45
2023/02/20 03:20:32;;;;;;;0.17;0.10;;;;;;;;;;4115240;28;20117;-42
2023/02/20 03:22:40;;;;;;;0.50;0.10;;;;;;;;;;4128141;28;20383;-50
2023/02/20 03:24:56;;;;;;;0.13;0.10;;;;;;;;;;4105080;28;20051;-48
2023/02/20 03:27:09;;;;;;;0.10;0.08;;;;;;;;;;4148087;28;20057;-43
2023/02/20 03:29:32;;;;;;;1.27;0.30;;;;;;;;;;4131357;28;20455;-46
2023/02/20 03:43:58;;;;;;;1.10;0.35;;;;;;;;;;4133894;28;20058;-39
2023/02/20 03:46:03;;;;;;;0.98;0.30;;;;;;;;;;4115416;28;20109;-48
2023/02/20 03:48:35;;;;;;;0.30;0.10;;;;;;;;;;4115827;28;20109;-45
2023/02/20 03:50:37;;;;;;;0.30;0.20;;;;;;;;;;4124199;28;20120;-48
2023/02/20 03:52:39;;;;;;;0.20;0.17;;;;;;;;;;4130836;28;20441;-44
2023/02/20 03:54:41;;;;;;;1.45;0.20;;;;;;;;;;4131305;28;20117;-48
2023/02/20 03:56:51;;;;;;;0.30;0.17;;;;;;;;;;4148169;28;20107;-45
2023/02/20 03:59:20;;;;;;;0.10;0.10;;;;;;;;;;4115352;28;20105;-47
2023/02/20 04:01:22;;;;;;;0.30;0.10;;;;;;;;;;4106888;28;20058;-47
2023/02/20 04:03:27;;;;;;;0.40;0.13;;;;;;;;;;4131151;28;20054;-45
2023/02/20 04:05:35;;;;;;;0.93;0.20;;;;;;;;;;4148465;28;20057;-44
2023/02/20 04:07:49;;;;;;;1.27;0.15;;;;;;;;;;4130556;28;20485;-46
2023/02/20 04:09:51;;;;;;;0.00;0.00;;;;;;;;;;4131130;28;20050;-43
2023/02/20 04:11:57;;;;;;;0.28;0.13;;;;;;;;;;4123119;28;20066;-43
2023/02/20 04:13:59;;;;;;;0.63;0.10;;;;;;;;;;4114809;28;20412;-46
2023/02/20 04:16:01;;;;;;;0.52;0.30;;;;;;;;;;4114755;28;20505;-46
2023/02/20 04:18:03;;;;;;;0.20;0.10;;;;;;;;;;4120939;28;20062;-43
2023/02/20 04:20:05;;;;;;;0.32;0.10;;;;;;;;;;4130673;28;20105;-39
2023/02/20 04:22:13;;;;;;;0.17;0.10;;;;;;;;;;4102069;28;20395;-50
2023/02/20 04:24:29;;;;;;;0.20;0.10;;;;;;;;;;4114853;28;20454;-47
2023/02/20 04:26:30;;;;;;;0.43;0.10;;;;;;;;;;4130666;28;20481;-44
2023/02/20 04:28:33;;;;;;;0.38;0.20;;;;;;;;;;4114379;28;20054;-45
2023/02/20 04:30:37;;;;;;;0.85;0.17;;;;;;;;;;4114675;28;20054;-46
2023/02/20 04:32:38;;;;;;;0.95;0.30;;;;;;;;;;4147021;28;20088;-47
2023/02/20 04:34:40;;;;;;;0.60;0.20;;;;;;;;;;4130789;28;20050;-47
2023/02/20 04:36:44;;;;;;;0.05;0.03;;;;;;;;;;4130037;28;20054;-42
2023/02/20 04:38:45;;;;;;;0.25;0.20;;;;;;;;;;4140203;28;20054;-44
2023/02/20 04:40:50;;;;;;;0.10;0.10;;;;;;;;;;4130625;28;20050;-44
2023/02/20 04:42:51;;;;;;;0.20;0.10;;;;;;;;;;4130523;28;20058;-49
2023/02/20 04:44:53;;;;;;;0.10;0.10;;;;;;;;;;4130412;28;20099;-42
2023/02/20 04:46:54;;;;;;;0.70;0.20;;;;;;;;;;4130658;28;20086;-43
2023/02/20 04:48:57;;;;;;;0.40;0.20;;;;;;;;;;4130770;28;20105;-43
2023/02/20 04:50:58;;;;;;;0.17;0.10;;;;;;;;;;4129719;28;20117;-48
2023/02/20 04:53:01;;;;;;;0.93;0.10;;;;;;;;;;4129868;28;20054;-45
2023/02/20 04:55:03;;;;;;;0.38;0.10;;;;;;;;;;4147782;28;20564;-45
2023/02/20 04:57:04;;;;;;;1.23;0.10;;;;;;;;;;4129877;28;20536;-45
2023/02/20 04:59:06;;;;;;;0.10;0.08;;;;;;;;;;4130217;28;20077;-43
2023/02/20 05:01:08;;;;;;;0.38;0.10;;;;;;;;;;4130545;28;20062;-47
2023/02/20 05:03:09;;;;;;;0.20;0.10;;;;;;;;;;4134362;28;20053;-42
2023/02/20 05:05:18;;;;;;;0.20;0.10;;;;;;;;;;4147469;28;20080;-42
2023/02/20 05:07:19;;;;;;;0.40;0.00;;;;;;;;;;4146717;28;20084;-44
2023/02/20 05:09:21;;;;;;;1.58;0.20;;;;;;;;;;4147511;28;20053;-44
2023/02/20 05:11:23;;;;;;;1.70;0.13;;;;;;;;;;4147171;28;20057;-46
2023/02/20 05:13:24;;;;;;;0.35;0.20;;;;;;;;;;4147632;28;20054;-48
2023/02/20 05:15:28;;;;;;;1.20;0.20;;;;;;;;;;4147396;28;20479;-46
2023/02/20 05:17:30;;;;;;;0.77;0.20;;;;;;;;;;4126688;28;20055;-43
2023/02/20 05:19:31;;;;;;;0.45;0.20;;;;;;;;;;4147089;28;20522;-48
2023/02/20 05:23:52;;;;;;;;;;;;;;;;;;4133028;28;20062;-43
2023/02/20 05:25:53;;;;;;;0.93;0.50;;;;;;;;;;4147119;28;19929;-49
2023/02/20 05:27:54;;;;;;;3.15;0.30;;;;;;;;;;4147316;28;20054;-44
2023/02/20 05:29:57;;;;;;;0.65;0.20;;;;;;;;;;4147261;28;20058;-41
2023/02/20 05:31:58;;;;;;;0.93;0.20;;;;;;;;;;4147093;28;20453;-41
2023/02/20 05:34:00;;;;;;;1.27;0.22;;;;;;;;;;4146937;28;20409;-41
2023/02/20 05:36:02;;;;;;;2.13;0.43;;;;;;;;;;4147044;28;20050;-40
2023/02/20 05:38:03;;;;;;;1.58;0.20;;;;;;;;;;4146663;28;20566;-41
2023/02/20 05:40:05;;;;;;;1.40;0.30;;;;;;;;;;4147133;28;20152;-40
2023/02/20 05:42:08;;;;;;;1.77;0.75;;;;;;;;;;4146963;28;20486;-41
2023/02/20 05:44:09;;;;;;;0.70;0.40;;;;;;;;;;4146659;28;20567;-41
2023/02/20 05:46:11;;;;;;;0.90;0.30;;;;;;;;;;4146781;28;20054;-41
2023/02/20 05:48:14;;;;;;;0.80;0.22;;;;;;;;;;4146958;28;20111;-41
2023/02/20 05:50:23;;;;;;;1.77;0.50;;;;;;;;;;4147008;28;20062;-39
2023/02/20 05:52:27;;;;;;;1.15;0.22;;;;;;;;;;4129538;28;20135;-41
2023/02/20 05:54:30;;;;;;;0.57;0.13;;;;;;;;;;4146834;28;20053;-41
2023/02/20 05:56:41;;;;;;;0.60;0.20;;;;;;;;;;4146539;28;20509;-41
2023/02/20 05:58:45;;;;;;;1.00;0.20;;;;;;;;;;4146667;28;20516;-41
2023/02/20 06:00:48;;;;;;;0.50;0.20;;;;;;;;;;4144446;28;20504;-41
2023/02/20 06:02:52;;;;;;;0.60;0.20;;;;;;;;;;4144649;28;20062;-41
2023/02/20 06:04:56;;;;;;;0.93;0.30;;;;;;;;;;4144959;28;20054;-41
2023/02/20 06:06:59;;;;;;;0.52;0.20;;;;;;;;;;4144069;28;20317;-41
2023/02/20 06:09:06;;;;;;;0.63;0.30;;;;;;;;;;4144895;28;20393;-41
2023/02/20 06:11:12;;;;;;;0.63;0.20;;;;;;;;;;4144771;28;20057;-40
2023/02/20 06:13:15;;;;;;;0.93;0.30;;;;;;;;;;4144330;28;20107;-41
2023/02/20 06:15:20;;;;;;;0.75;0.20;;;;;;;;;;4127820;28;20054;-41
2023/02/20 06:17:23;;;;;;;0.88;0.30;;;;;;;;;;4127141;28;20058;-40
2023/02/20 06:19:24;;;;;;;0.43;0.20;;;;;;;;;;4144331;28;20119;-41
2023/02/20 06:21:26;;;;;;;2.20;0.28;;;;;;;;;;4143241;28;20057;-41
2023/02/20 06:23:27;;;;;;;0.43;0.20;;;;;;;;;;4144246;28;20054;-41
2023/02/20 06:25:29;;;;;;;0.57;0.20;;;;;;;;;;4144341;28;20058;-41
2023/02/20 06:27:30;;;;;;;1.95;0.25;;;;;;;;;;4144182;28;20058;-41
2023/02/20 06:29:31;;;;;;;1.73;0.10;;;;;;;;;;4126998;28;20565;-41
2023/02/20 06:31:33;;;;;;;4.80;0.50;;;;;;;;;;4142283;28;20062;-40
2023/02/20 06:33:35;;;;;;;2.60;0.40;;;;;;;;;;4137995;28;20076;-40
2023/02/20 06:35:36;;;;;;;1.10;0.28;;;;;;;;;;4142552;28;20058;-41
2023/02/20 06:37:37;;;;;;;0.55;0.10;;;;;;;;;;4143430;28;20082;-41
2023/02/20 06:39:41;;;;;;;2.80;0.30;;;;;;;;;;4143909;28;20050;-40
2023/02/20 06:41:44;;;;;;;3.08;0.40;;;;;;;;;;4141542;28;20061;-41
2023/02/20 06:43:45;;;;;;;2.17;0.55;;;;;;;;;;4123982;28;20093;-41
2023/02/20 06:45:46;;;;;;;1.67;0.40;;;;;;;;;;4138986;28;20057;-40
2023/02/20 06:47:49;;;;;;;2.13;0.60;;;;;;;;;;4136569;28;20075;-42
2023/02/20 06:49:50;;;;;;;2.47;0.40;;;;;;;;;;4139356;28;20546;-41
2023/02/20 06:51:53;;;;;;;0.75;0.30;;;;;;;;;;4143474;28;20385;-41
2023/02/20 06:53:54;;;;;;;2.47;0.35;;;;;;;;;;4141010;28;20682;-41
2023/02/20 06:55:55;;;;;;;2.78;1.02;;;;;;;;;;4136708;28;20054;-40
2023/02/20 06:57:56;;;;;;;1.27;0.30;;;;;;;;;;4139642;28;20072;-41
2023/02/20 06:59:57;;;;;;;2.53;0.30;;;;;;;;;;4141658;28;20050;-41
2023/02/20 07:01:59;;;;;;;0.82;0.30;;;;;;;;;;4140905;28;20095;-40
2023/02/20 07:04:01;;;;;;;0.93;0.40;;;;;;;;;;4137399;28;20080;-41
2023/02/20 07:06:02;;;;;;;1.20;0.30;;;;;;;;;;4116450;28;20101;-41
2023/02/20 07:08:03;;;;;;;3.13;0.43;;;;;;;;;;4135284;28;20057;-42
2023/02/20 07:10:05;;;;;;;2.55;0.40;;;;;;;;;;4105026;28;20105;-42
2023/02/20 07:12:06;;;;;;;3.13;0.55;;;;;;;;;;4129218;28;20072;-41
2023/02/20 07:14:08;;;;;;;2.03;0.47;;;;;;;;;;4125489;28;20446;-42
2023/02/20 07:16:09;;;;;;;6.70;0.40;;;;;;;;;;4121723;28;20342;-41
2023/02/20 07:18:10;;;;;;;2.90;0.40;;;;;;;;;;4129459;28;20065;-41
2023/02/20 07:20:13;;;;;;;2.10;0.50;;;;;;;;;;4130742;28;20470;-41
2023/02/20 07:22:15;;;;;;;4.85;0.38;;;;;;;;;;4101765;28;20050;-41
2023/02/20 07:24:16;;;;;;;5.15;0.30;;;;;;;;;;4135903;28;20049;-43
2023/02/20 07:26:20;;;;;;;2.50;0.40;;;;;;;;;;4129271;28;20351;-40
2023/02/20 07:28:21;;;;;;;1.90;0.40;;;;;;;;;;4133396;28;20398;-40
2023/02/20 07:30:24;;;;;;;1.67;0.43;;;;;;;;;;4115893;28;20154;-40
2023/02/20 07:32:25;;;;;;;1.80;0.32;;;;;;;;;;4133796;28;20062;-40
2023/02/20 07:34:26;;;;;;;2.92;0.68;;;;;;;;;;4117247;28;20557;-40
2023/02/20 07:36:28;;;;;;;1.08;0.35;;;;;;;;;;4120063;28;20386;-39
2023/02/20 07:38:30;;;;;;;0.55;0.20;;;;;;;;;;4131740;28;20084;-40
2023/02/20 07:40:31;;;;;;;1.77;0.30;;;;;;;;;;4127055;28;20066;-40
2023/02/20 07:42:33;;;;;;;2.28;0.20;;;;;;;;;;4132857;28;20061;-39
2023/02/20 07:44:47;;;;;;;3.15;0.30;;;;;;;;;;4111726;28;20765;-39
2023/02/20 07:46:49;;;;;;;1.88;0.30;;;;;;;;;;4122031;28;20113;-39
2023/02/20 07:48:52;;;;;;;1.95;0.50;;;;;;;;;;4106041;28;20098;-40
2023/02/20 07:50:53;;;;;;;2.78;0.75;;;;;;;;;;4126405;28;20543;-39
2023/02/20 07:52:54;;;;;;;1.48;0.60;;;;;;;;;;4105356;28;20058;-40
2023/02/20 07:54:56;;;;;;;3.42;0.38;;;;;;;;;;4125890;28;20548;-39
2023/02/20 07:56:57;;;;;;;5.18;0.38;;;;;;;;;;4118568;28;20054;-40
2023/02/20 07:58:58;;;;;;;1.88;0.30;;;;;;;;;;4116800;28;20167;-40
2023/02/20 08:01:00;;;;;;;2.53;0.40;;;;;;;;;;4107278;28;20062;-40
2023/02/20 08:03:01;;;;;;;0.65;0.30;;;;;;;;;;4114425;28;20972;-39
2023/02/20 08:05:02;;;;;;;5.00;0.32;;;;;;;;;;4115244;28;20053;-39
2023/02/20 08:07:06;;;;;;;3.03;0.38;;;;;;;;;;4114667;28;20123;-40
2023/02/20 08:09:08;;;;;;;1.85;0.50;;;;;;;;;;4121256;28;20073;-39
2023/02/20 08:11:10;;;;;;;0.68;0.32;;;;;;;;;;4115894;28;20058;-39
2023/02/20 08:13:11;;;;;;;1.35;0.30;;;;;;;;;;4102569;28;20065;-39
2023/02/20 08:15:13;;;;;;;2.38;0.35;;;;;;;;;;4117458;28;20066;-39
2023/02/20 08:17:15;;;;;;;2.33;0.20;;;;;;;;;;4103745;28;20780;-39
2023/02/20 08:19:16;;;;;;;1.15;0.30;;;;;;;;;;4110808;28;20648;-39
2023/02/20 08:21:17;;;;;;;0.98;0.40;;;;;;;;;;4111339;28;20071;-39
2023/02/20 08:23:21;;;;;;;1.50;0.25;;;;;;;;;;4120562;28;20105;-39
2023/02/20 08:25:23;;;;;;;2.10;0.20;;;;;;;;;;4103041;28;20242;-39
2023/02/20 08:27:25;;;;;;;1.20;0.22;;;;;;;;;;4112522;28;20061;-39
2023/02/20 08:29:26;;;;;;;0.25;0.10;;;;;;;;;;4111316;28;20082;-40
2023/02/20 08:31:27;;;;;;;4.28;0.40;;;;;;;;;;4110806;28;20151;-39
2023/02/20 08:33:29;;;;;;;2.28;0.20;;;;;;;;;;4088603;28;20119;-39
2023/02/20 08:35:34;;;;;;;1.52;0.22;;;;;;;;;;4105890;28;21274;-40
2023/02/20 08:37:35;;;;;;;0.65;0.20;;;;;;;;;;4114910;28;20062;-39
2023/02/20 08:39:37;;;;;;;0.57;0.10;;;;;;;;;;4108140;28;20656;-39
2023/02/20 08:41:46;;;;;;;1.88;0.35;;;;;;;;;;4114564;28;20490;-39
2023/02/20 08:43:47;;;;;;;0.38;0.10;;;;;;;;;;4117735;28;20501;-40
2023/02/20 08:45:48;;;;;;;1.05;0.20;;;;;;;;;;4102961;28;20742;-39
2023/02/20 08:47:50;;;;;;;3.13;0.30;;;;;;;;;;4109208;28;20065;-39
2023/02/20 08:49:52;;;;;;;0.38;0.10;;;;;;;;;;4108634;28;21070;-40
2023/02/20 08:51:54;;;;;;;0.13;0.10;;;;;;;;;;4105711;28;20460;-40
2023/02/20 08:53:55;;;;;;;0.88;0.30;;;;;;;;;;4093725;28;20105;-39
2023/02/20 08:55:56;;;;;;;1.75;0.20;;;;;;;;;;4108854;28;20065;-39
2023/02/20 08:57:58;;;;;;;1.45;0.10;;;;;;;;;;4103129;28;20069;-40
2023/02/20 08:59:59;;;;;;;0.30;0.10;;;;;;;;;;4104009;28;20524;-39
2023/02/20 09:02:01;;;;;;;1.55;0.30;;;;;;;;;;4076011;28;20692;-40
2023/02/20 09:04:02;;;;;;;0.75;0.10;;;;;;;;;;4077917;28;20212;-39
2023/02/20 09:06:04;;;;;;;1.50;0.30;;;;;;;;;;4075769;28;20674;-39
2023/02/20 09:08:05;;;;;;;0.57;0.20;;;;;;;;;;4105595;28;20730;-40
2023/02/20 09:10:08;;;;;;;2.63;0.95;;;;;;;;;;4105693;28;20306;-39
2023/02/20 09:12:09;;;;;;;1.05;0.20;;;;;;;;;;4113686;28;20061;-39
2023/02/20 09:14:11;;;;;;;4.05;0.32;;;;;;;;;;4107932;28;20559;-40
2023/02/20 09:16:14;;;;;;;0.75;0.20;;;;;;;;;;4108926;28;20062;-39
2023/02/20 09:18:15;;;;;;;0.70;0.10;;;;;;;;;;4111426;28;20061;-39
2023/02/20 09:20:19;;;;;;;1.88;0.30;;;;;;;;;;4091073;28;20054;-40
2023/02/20 09:22:24;;;;;;;4.47;0.57;;;;;;;;;;4105128;28;20139;-38
2023/02/20 09:24:30;;;;;;;1.30;0.10;;;;;;;;;;4096269;28;20101;-39
2023/02/20 09:26:31;;;;;;;0.60;0.10;;;;;;;;;;4092531;28;20683;-38
2023/02/20 09:28:33;;;;;;;5.50;0.63;;;;;;;;;;4106578;28;21060;-38
2023/02/20 09:30:35;;;;;;;0.28;0.10;;;;;;;;;;4101445;28;20112;-39
2023/02/20 09:32:36;;;;;;;0.45;0.10;;;;;;;;;;4081841;28;20100;-39
2023/02/20 09:34:38;;;;;;;4.10;0.10;;;;;;;;;;4113287;28;20053;-39
2023/02/20 09:36:39;;;;;;;0.50;0.10;;;;;;;;;;4101687;28;20474;-38
2023/02/20 09:38:40;;;;;;;0.90;0.20;;;;;;;;;;4079492;28;20462;-39
2023/02/20 09:40:43;;;;;;;0.80;0.20;;;;;;;;;;4109576;28;20096;-39
2023/02/20 09:42:55;;;;;;;2.45;0.10;;;;;;;;;;4093634;28;21344;-38
2023/02/20 09:45:11;;;;;;;1.27;0.20;;;;;;;;;;4117454;28;20054;-38
2023/02/20 09:47:28;;;;;;;0.65;0.20;;;;;;;;;;4084269;28;20160;-38
2023/02/20 09:49:36;;;;;;;1.77;0.25;;;;;;;;;;4109964;28;20145;-38
2023/02/20 09:51:43;;;;;;;0.57;0.20;;;;;;;;;;4081294;28;20593;-38
2023/02/20 09:53:54;;;;;;;0.63;0.20;;;;;;;;;;4110412;28;20123;-39
2023/02/20 09:55:55;;;;;;;1.83;0.30;;;;;;;;;;4122500;28;20054;-39
2023/02/20 09:57:57;;;;;;;1.58;0.20;;;;;;;;;;4106812;28;20464;-39
2023/02/20 10:00:08;;;;;;;0.08;0.08;;;;;;;;;;4107871;28;20050;-41
2023/02/20 10:02:18;;;;;;;0.95;0.20;;;;;;;;;;4088548;28;20148;-39
2023/02/20 10:04:20;;;;;;;;;;;;;;;;;;4118041;28;20112;-39
2023/02/20 10:06:25;;;;;;;1.08;0.20;;;;;;;;;;4106026;28;20001;-41
2023/02/20 10:08:26;;;;;;;0.22;0.10;;;;;;;;;;4103407;28;20062;-38
2023/02/20 10:10:32;;;;;;;2.50;0.50;;;;;;;;;;4094247;28;20265;-39
2023/02/20 10:12:48;;;;;;;0.77;0.20;;;;;;;;;;4106501;28;20292;-38
2023/02/20 10:15:05;;;;;;;0.95;0.10;;;;;;;;;;4108780;28;20053;-39
2023/02/20 10:17:15;;;;;;;0.60;0.35;;;;;;;;;;4094735;28;21335;-38
2023/02/20 10:19:26;;;;;;;1.25;0.20;;;;;;;;;;4102607;28;20061;-38
2023/02/20 10:22:10;;;;;;;0.63;0.20;;;;;;;;;;4110294;28;20069;-38
2023/02/20 10:24:29;;;;;;;1.00;0.20;;;;;;;;;;4086459;28;20055;-38
2023/02/20 10:26:38;;;;;;;0.20;0.10;;;;;;;;;;4103744;28;20921;-38
2023/02/20 10:28:40;;;;;;;1.10;0.20;;;;;;;;;;4102541;28;20597;-39
2023/02/20 10:30:54;;;;;;;0.52;0.20;;;;;;;;;;4100697;28;20124;-38
2023/02/20 10:33:08;;;;;;;1.20;0.40;;;;;;;;;;4099524;28;20737;-40
2023/02/20 10:35:16;;;;;;;1.80;0.30;;;;;;;;;;4088522;28;20758;-38
2023/02/20 10:37:22;;;;;;;1.45;0.50;;;;;;;;;;4092036;28;20857;-37
2023/02/20 10:39:24;;;;;;;2.08;0.55;;;;;;;;;;4108629;28;20556;-38
2023/02/20 10:41:33;;;;;;;0.80;0.30;;;;;;;;;;4074768;28;20096;-39
2023/02/20 10:43:38;;;;;;;0.60;0.10;;;;;;;;;;4112548;28;20112;-41
2023/02/20 10:46:07;;;;;;;2.15;0.32;;;;;;;;;;4101125;28;20100;-38
2023/02/20 10:48:14;;;;;;;0.87;0.30;;;;;;;;;;4088248;28;20062;-40
2023/02/20 10:50:28;;;;;;;1.38;0.20;;;;;;;;;;4110525;28;20171;-38
2023/02/20 10:52:41;;;;;;;1.88;0.25;;;;;;;;;;4085188;28;20058;-37
2023/02/20 10:54:46;;;;;;;1.27;0.35;;;;;;;;;;4083623;28;20248;-39
2023/02/20 10:56:55;;;;;;;0.43;0.20;;;;;;;;;;4080797;28;20097;-38
2023/02/20 10:59:24;;;;;;;1.33;0.30;;;;;;;;;;4097593;28;20062;-38
2023/02/20 11:01:25;;;;;;;0.60;0.30;;;;;;;;;;4115174;28;20573;-39
2023/02/20 11:03:49;;;;;;;0.85;0.30;;;;;;;;;;4114338;28;20166;-39
2023/02/20 11:05:54;;;;;;;0.28;0.20;;;;;;;;;;4115674;28;20073;-39
2023/02/20 11:07:55;;;;;;;0.68;0.35;;;;;;;;;;4112800;28;20104;-38
2023/02/20 11:09:56;;;;;;;0.95;0.30;;;;;;;;;;4112746;28;20749;-38
2023/02/20 11:11:58;;;;;;;0.93;0.50;;;;;;;;;;4122962;28;20057;-38
2023/02/20 11:14:08;;;;;;;2.38;0.30;;;;;;;;;;4118165;28;20062;-37
2023/02/20 11:16:20;;;;;;;1.02;0.28;;;;;;;;;;4105972;28;20387;-39
2023/02/20 11:18:34;;;;;;;1.20;0.40;;;;;;;;;;4096855;28;20117;-37
2023/02/20 11:20:41;;;;;;;0.93;0.25;;;;;;;;;;4088920;28;20063;-38
2023/02/20 11:22:45;;;;;;;2.08;0.20;;;;;;;;;;4102825;28;20054;-38
2023/02/20 11:24:46;;;;;;;0.55;0.30;;;;;;;;;;4106735;28;20054;-37
2023/02/20 11:26:50;;;;;;;1.65;0.40;;;;;;;;;;4091938;28;20070;-37
2023/02/20 11:29:05;;;;;;;0.38;0.28;;;;;;;;;;4096284;28;20465;-37
2023/02/20 11:31:07;;;;;;;1.25;0.40;;;;;;;;;;4093116;28;20117;-37
2023/02/20 11:33:20;;;;;;;0.77;0.30;;;;;;;;;;4105840;28;20057;-37
2023/02/20 11:35:28;;;;;;;0.93;0.43;;;;;;;;;;4092169;28;20454;-37
2023/02/20 11:37:31;;;;;;;1.58;0.40;;;;;;;;;;4082487;28;20126;-36
2023/02/20 11:39:32;;;;;;;1.67;0.35;;;;;;;;;;4108399;28;20712;-37
2023/02/20 11:41:35;;;;;;;0.20;0.20;;;;;;;;;;4110247;28;20108;-36
2023/02/20 11:43:40;;;;;;;2.72;0.52;;;;;;;;;;4112459;28;20062;-37
2023/02/20 11:45:41;;;;;;;0.22;0.22;;;;;;;;;;4110377;28;20087;-37
2023/02/20 11:47:43;;;;;;;0.90;0.40;;;;;;;;;;4112786;28;20117;-36
2023/02/20 11:49:44;;;;;;;1.65;0.70;;;;;;;;;;4109522;28;20065;-37
2023/02/20 11:51:47;;;;;;;1.42;0.50;;;;;;;;;;4095481;28;20053;-36
2023/02/20 11:54:24;;;;;;;0.73;0.20;;;;;;;;;;4089011;28;20061;-37
2023/02/20 11:56:26;;;;;;;1.27;0.35;;;;;;;;;;4095767;28;20160;-47
2023/02/20 11:58:28;;;;;;;1.35;0.20;;;;;;;;;;4087096;28;20113;-42
2023/02/20 12:00:44;;;;;;;0.77;0.30;;;;;;;;;;4087444;28;20435;-42
2023/02/20 12:03:13;;;;;;;2.83;0.32;;;;;;;;;;4096685;28;20062;-45
2023/02/20 12:05:15;;;;;;;0.50;0.40;;;;;;;;;;4090317;28;21623;-42
2023/02/20 12:07:24;;;;;;;2.83;0.40;;;;;;;;;;4081475;28;20277;-46
2023/02/20 12:09:27;;;;;;;0.80;0.30;;;;;;;;;;4082182;28;21873;-43
2023/02/20 12:11:29;;;;;;;1.25;0.32;;;;;;;;;;4102328;28;20585;-45
2023/02/20 12:13:42;;;;;;;0.68;0.30;;;;;;;;;;4100772;28;20062;-45
2023/02/20 12:15:48;;;;;;;0.30;0.20;;;;;;;;;;4110090;28;20433;-44
2023/02/20 12:18:06;;;;;;;0.88;0.20;;;;;;;;;;4090999;28;20058;-46
2023/02/20 12:20:15;;;;;;;3.60;0.30;;;;;;;;;;4103292;28;20504;-44
2023/02/20 12:22:25;;;;;;;2.20;0.30;;;;;;;;;;4068103;28;20065;-45
2023/02/20 12:24:33;;;;;;;;;;;;;;;;;;4115254;28;20831;-44
2023/02/20 12:26:54;;;;;;;2.53;0.30;;;;;;;;;;4116563;28;20070;-47
2023/02/20 12:29:26;;;;;;;3.17;0.75;;;;;;;;;;4113703;28;20057;-45
2023/02/20 12:31:51;;;;;;;1.38;0.50;;;;;;;;;;4119477;28;20050;-43
2023/02/20 12:34:01;;;;;;;0.55;0.30;;;;;;;;;;4120445;28;20084;-43
2023/02/20 12:36:09;;;;;;;2.33;0.38;;;;;;;;;;4118605;28;20446;-45
2023/02/20 12:38:35;;;;;;;0.90;0.40;;;;;;;;;;4112801;28;20078;-44
2023/02/20 12:40:45;;;;;;;2.35;0.40;;;;;;;;;;4121238;28;20100;-45
2023/02/20 12:42:59;;;;;;;0.28;0.17;;;;;;;;;;4119949;28;20104;-46
2023/02/20 12:45:11;;;;;;;2.30;0.38;;;;;;;;;;4124094;28;20592;-45
2023/02/20 12:47:22;;;;;;;2.15;0.20;;;;;;;;;;4118538;28;20053;-42
2023/02/20 12:49:44;;;;;;;1.17;0.40;;;;;;;;;;4120863;28;20501;-46
2023/02/20 12:51:57;;;;;;;0.55;0.40;;;;;;;;;;4117186;28;20104;-45